createdAt,value
2023-05-16T00:01:01.452Z,5.03
2023-05-16T00:03:28.250Z,5.93
2023-05-16T00:05:55.902Z,5.00
2023-05-16T00:08:22.803Z,5.90
2023-05-16T00:10:49.369Z,5.00
2023-05-16T00:13:16.206Z,5.00
2023-05-16T00:15:44.133Z,5.07
2023-05-16T00:18:14.675Z,5.60
2023-05-16T00:20:41.657Z,4.87
2023-05-16T00:23:08.303Z,4.10
2023-05-16T00:25:34.897Z,5.00
2023-05-16T00:28:01.441Z,4.47
2023-05-16T00:30:28.209Z,4.13
2023-05-16T00:32:56.137Z,3.90
2023-05-16T00:35:22.880Z,3.20
2023-05-16T00:37:50.907Z,3.03
2023-05-16T00:40:17.611Z,2.80
2023-05-16T00:42:44.652Z,2.43
2023-05-16T00:45:11.591Z,2.90
2023-05-16T00:47:38.189Z,3.57
2023-05-16T00:50:05.837Z,2.50
2023-05-16T00:52:33.618Z,2.80
2023-05-16T00:55:01.034Z,2.60
2023-05-16T00:57:27.746Z,2.90
2023-05-16T00:59:54.983Z,2.70
2023-05-16T01:02:21.833Z,2.43
2023-05-16T01:04:49.579Z,2.27
2023-05-16T01:07:17.406Z,2.40
2023-05-16T01:09:44.135Z,2.10
2023-05-16T01:12:45.430Z,2.00
2023-05-16T01:15:25.976Z,2.23
2023-05-16T01:18:19.231Z,1.97
2023-05-16T01:20:56.784Z,1.83
2023-05-16T01:23:40.900Z,1.73
2023-05-16T01:26:17.394Z,2.00
2023-05-16T01:28:48.905Z,2.30
2023-05-16T01:31:16.230Z,2.30
2023-05-16T01:33:43.296Z,2.70
2023-05-16T01:36:26.599Z,2.27
2023-05-16T01:39:14.081Z,2.20
2023-05-16T01:42:04.478Z,2.67
2023-05-16T01:44:53.008Z,2.53
2023-05-16T01:47:22.541Z,2.43
2023-05-16T01:50:19.732Z,2.67
2023-05-16T01:52:52.522Z,3.30
2023-05-16T01:55:45.769Z,2.50
2023-05-16T01:58:14.813Z,2.87
2023-05-16T02:00:42.258Z,2.60
2023-05-16T02:03:09.616Z,2.53
2023-05-16T02:05:36.305Z,3.10
2023-05-16T02:08:03.818Z,3.10
2023-05-16T02:10:30.550Z,2.40
2023-05-16T02:12:57.801Z,2.70
2023-05-16T02:15:24.675Z,2.97
2023-05-16T02:17:51.412Z,2.90
2023-05-16T02:20:18.116Z,3.27
2023-05-16T02:22:46.991Z,3.17
2023-05-16T02:25:15.029Z,3.13
2023-05-16T02:27:42.919Z,4.03
2023-05-16T02:30:12.032Z,3.13
2023-05-16T02:32:39.810Z,2.80
2023-05-16T02:35:07.209Z,2.83
2023-05-16T02:37:33.993Z,3.03
2023-05-16T02:40:00.618Z,2.63
2023-05-16T02:42:27.711Z,2.87
2023-05-16T02:44:54.267Z,3.57
2023-05-16T02:47:21.001Z,3.40
2023-05-16T02:49:47.684Z,3.13
2023-05-16T02:52:14.350Z,3.10
2023-05-16T02:54:40.997Z,3.00
2023-05-16T02:57:07.657Z,3.40
2023-05-16T02:59:34.241Z,4.47
2023-05-16T03:02:00.917Z,3.70
2023-05-16T03:04:27.910Z,3.50
2023-05-16T03:06:54.514Z,3.90
2023-05-16T03:09:21.697Z,2.83
2023-05-16T03:11:48.464Z,3.50
2023-05-16T03:14:15.211Z,3.10
2023-05-16T03:16:43.857Z,2.83
2023-05-16T03:19:10.924Z,2.80
2023-05-16T03:21:37.525Z,2.90
2023-05-16T03:24:04.381Z,3.03
2023-05-16T03:26:31.338Z,2.53
2023-05-16T03:28:58.889Z,2.50
2023-05-16T03:31:25.555Z,2.77
2023-05-16T03:33:52.130Z,2.70
2023-05-16T03:36:21.595Z,3.03
2023-05-16T03:38:48.645Z,3.47
2023-05-16T03:41:15.304Z,3.00
2023-05-16T03:43:42.219Z,2.10
2023-05-16T03:46:08.857Z,2.00
2023-05-16T03:48:35.552Z,3.40
2023-05-16T03:51:02.124Z,2.33
2023-05-16T03:53:28.669Z,2.90
2023-05-16T03:55:55.313Z,2.30
2023-05-16T03:58:21.996Z,2.40
2023-05-16T04:00:51.399Z,3.33
2023-05-16T04:03:17.962Z,2.90
2023-05-16T04:05:44.936Z,2.60
2023-05-16T04:08:11.854Z,2.80
2023-05-16T04:10:38.433Z,2.90
2023-05-16T04:13:05.074Z,2.73
2023-05-16T04:15:31.609Z,2.93
2023-05-16T04:17:58.345Z,2.93
2023-05-16T04:20:24.989Z,2.00
2023-05-16T04:22:51.867Z,2.97
2023-05-16T04:25:18.475Z,3.40
2023-05-16T04:27:45.085Z,2.40
2023-05-16T04:30:12.153Z,3.93
2023-05-16T04:32:38.770Z,2.80
2023-05-16T04:35:05.751Z,2.90
2023-05-16T04:37:32.329Z,2.47
2023-05-16T04:39:59.277Z,3.90
2023-05-16T04:42:25.974Z,3.93
2023-05-16T04:44:52.695Z,3.17
2023-05-16T04:47:19.405Z,2.80
2023-05-16T04:49:46.069Z,2.33
2023-05-16T04:52:12.984Z,2.90
2023-05-16T04:54:39.775Z,2.47
2023-05-16T04:57:06.302Z,2.30
2023-05-16T04:59:32.845Z,3.00
2023-05-16T05:01:59.479Z,2.90
2023-05-16T05:04:26.240Z,2.33
2023-05-16T05:06:52.929Z,2.37
2023-05-16T05:09:19.479Z,2.93
2023-05-16T05:11:46.363Z,2.13
2023-05-16T05:14:12.965Z,2.37
2023-05-16T05:16:39.506Z,1.83
2023-05-16T05:19:06.181Z,2.93
2023-05-16T05:21:32.758Z,1.90
2023-05-16T05:23:59.364Z,2.10
2023-05-16T05:26:26.289Z,2.23
2023-05-16T05:29:04.754Z,2.60
2023-05-16T05:31:33.742Z,1.97
2023-05-16T05:34:04.455Z,2.87
2023-05-16T05:36:31.514Z,2.63
2023-05-16T05:38:58.067Z,3.70
2023-05-16T05:41:24.634Z,2.10
2023-05-16T05:43:51.374Z,2.37
2023-05-16T05:46:18.041Z,2.80
2023-05-16T05:48:45.036Z,2.50
2023-05-16T05:51:13.840Z,3.30
2023-05-16T05:53:41.422Z,2.20
2023-05-16T05:56:08.494Z,2.00
2023-05-16T05:58:35.178Z,2.13
2023-05-16T06:01:02.390Z,2.70
2023-05-16T06:03:28.973Z,2.10
2023-05-16T06:05:55.872Z,2.00
2023-05-16T06:08:22.521Z,2.43
2023-05-16T06:10:49.094Z,2.10
2023-05-16T06:13:15.763Z,2.30
2023-05-16T06:15:42.321Z,2.10
2023-05-16T06:18:08.895Z,3.20
2023-05-16T06:20:35.831Z,2.10
2023-05-16T06:23:02.360Z,2.33
2023-05-16T06:25:29.285Z,3.73
2023-05-16T06:27:56.087Z,2.60
2023-05-16T06:30:22.644Z,2.50
2023-05-16T06:32:49.581Z,1.90
2023-05-16T06:35:16.255Z,2.40
2023-05-16T06:37:43.236Z,2.53
2023-05-16T06:40:10.446Z,3.10
2023-05-16T06:42:37.647Z,2.30
2023-05-16T06:45:04.807Z,2.10
2023-05-16T06:47:31.484Z,1.90
2023-05-16T06:49:58.096Z,2.17
2023-05-16T06:52:24.891Z,2.20
2023-05-16T06:54:52.036Z,1.60
2023-05-16T06:57:18.640Z,1.93
2023-05-16T06:59:45.212Z,1.87
2023-05-16T07:02:11.864Z,2.67
2023-05-16T07:04:38.717Z,3.60
2023-05-16T07:07:07.653Z,2.90
2023-05-16T07:09:34.353Z,1.50
2023-05-16T07:12:00.989Z,1.33
2023-05-16T07:14:27.664Z,2.43
2023-05-16T07:16:54.399Z,1.70
2023-05-16T07:19:23.784Z,1.43
2023-05-16T07:21:50.484Z,1.60
2023-05-16T07:24:17.267Z,1.60
2023-05-16T07:26:43.984Z,1.63
2023-05-16T07:29:10.745Z,1.20
2023-05-16T07:31:37.418Z,1.03
2023-05-16T07:34:04.386Z,1.10
2023-05-16T07:36:31.144Z,1.70
2023-05-16T07:38:57.746Z,1.87
2023-05-16T07:41:25.423Z,1.37
2023-05-16T07:43:52.131Z,2.70
2023-05-16T07:46:18.826Z,1.30
2023-05-16T07:48:45.618Z,0.80
2023-05-16T07:51:12.396Z,1.50
2023-05-16T07:53:39.062Z,1.43
2023-05-16T07:56:06.726Z,1.47
2023-05-16T07:58:33.696Z,1.10
2023-05-16T08:01:00.725Z,1.33
2023-05-16T08:03:27.796Z,1.70
2023-05-16T08:05:54.488Z,1.30
2023-05-16T08:08:21.193Z,1.20
2023-05-16T08:10:47.815Z,1.57
2023-05-16T08:13:14.436Z,2.03
2023-05-16T08:15:41.147Z,1.10
2023-05-16T08:18:13.769Z,1.30
2023-05-16T08:20:41.655Z,1.40
2023-05-16T08:23:11.516Z,1.00
2023-05-16T08:25:38.246Z,1.37
2023-05-16T08:28:05.031Z,0.90
2023-05-16T08:30:32.135Z,1.00
2023-05-16T08:32:58.777Z,1.00
2023-05-16T08:35:25.681Z,1.00
2023-05-16T08:37:52.573Z,0.97
2023-05-16T08:40:19.818Z,1.17
2023-05-16T08:42:46.553Z,2.33
2023-05-16T08:45:13.619Z,0.90
2023-05-16T08:47:41.930Z,1.00
2023-05-16T08:50:10.432Z,1.53
2023-05-16T08:52:38.885Z,0.83
2023-05-16T08:55:11.462Z,0.90
2023-05-16T08:57:39.474Z,1.27
2023-05-16T09:00:11.904Z,1.60
2023-05-16T09:02:43.064Z,1.00
2023-05-16T09:05:12.157Z,1.50
2023-05-16T09:07:38.897Z,0.93
2023-05-16T09:10:06.971Z,0.87
2023-05-16T09:12:34.545Z,1.00
2023-05-16T09:15:03.669Z,0.90
2023-05-16T09:17:43.842Z,1.00
2023-05-16T09:20:15.447Z,0.90
2023-05-16T09:22:54.933Z,0.80
2023-05-16T09:27:54.367Z,0.97
2023-05-16T09:30:35.298Z,1.10
2023-05-16T09:33:03.037Z,1.10
2023-05-16T09:35:43.891Z,0.80
2023-05-16T09:38:17.551Z,0.80
2023-05-16T09:40:45.681Z,1.10
2023-05-16T09:43:16.314Z,1.00
2023-05-16T09:45:48.080Z,0.80
2023-05-16T09:48:16.694Z,1.10
2023-05-16T09:50:49.864Z,1.00
2023-05-16T09:53:16.714Z,1.00
2023-05-16T09:55:43.522Z,1.00
2023-05-16T09:58:10.338Z,1.27
2023-05-16T10:00:38.500Z,0.90
2023-05-16T10:03:06.093Z,0.90
2023-05-16T10:05:34.596Z,0.90
2023-05-16T10:08:03.431Z,0.70
2023-05-16T10:10:30.153Z,1.00
2023-05-16T10:13:01.281Z,1.40
2023-05-16T10:15:29.389Z,1.07
2023-05-16T10:17:59.845Z,0.97
2023-05-16T10:20:27.362Z,0.90
2023-05-16T10:22:55.888Z,1.17
2023-05-16T10:25:33.965Z,1.10
2023-05-16T10:28:01.371Z,0.90
2023-05-16T10:30:28.329Z,0.90
2023-05-16T10:32:56.428Z,1.10
2023-05-16T10:35:23.623Z,1.17
2023-05-16T10:37:51.422Z,1.10
2023-05-16T10:40:19.486Z,1.30
2023-05-16T10:43:08.136Z,1.20
2023-05-16T10:45:39.666Z,1.67
2023-05-16T10:48:08.748Z,0.93
2023-05-16T10:50:46.177Z,0.80
2023-05-16T10:53:16.453Z,1.13
2023-05-16T10:56:10.360Z,1.77
2023-05-16T10:58:39.783Z,1.10
2023-05-16T11:01:35.098Z,1.00
2023-05-16T11:04:03.007Z,1.20
2023-05-16T11:06:42.374Z,1.17
2023-05-16T11:09:22.100Z,0.80
2023-05-16T11:11:51.875Z,0.63
2023-05-16T11:14:37.155Z,1.07
2023-05-16T11:17:13.394Z,1.00
2023-05-16T11:19:50.590Z,0.90
2023-05-16T11:22:20.667Z,1.30
2023-05-16T11:25:07.810Z,0.83
2023-05-16T11:27:36.574Z,0.90
2023-05-16T11:30:06.239Z,0.97
2023-05-16T11:32:37.453Z,1.57
2023-05-16T11:35:05.373Z,1.10
2023-05-16T11:37:32.089Z,0.93
2023-05-16T11:40:02.183Z,0.80
2023-05-16T11:42:34.722Z,0.80
2023-05-16T11:45:09.850Z,0.70
2023-05-16T11:47:37.872Z,0.60
2023-05-16T11:50:07.830Z,0.90
2023-05-16T11:52:34.725Z,0.90
2023-05-16T11:55:01.514Z,0.80
2023-05-16T11:57:28.316Z,0.77
2023-05-16T11:59:54.887Z,0.60
2023-05-16T12:02:21.994Z,0.80
2023-05-16T12:04:50.384Z,2.67
2023-05-16T12:07:17.130Z,0.80
2023-05-16T12:09:53.588Z,1.20
2023-05-16T12:12:23.036Z,2.43
2023-05-16T12:14:52.533Z,1.00
2023-05-16T12:17:22.107Z,0.80
2023-05-16T12:19:48.964Z,0.90
2023-05-16T12:22:20.313Z,1.20
2023-05-16T12:24:46.982Z,1.20
2023-05-16T12:27:21.215Z,1.03
2023-05-16T12:29:48.805Z,1.00
2023-05-16T12:32:19.529Z,1.00
2023-05-16T12:34:53.373Z,1.37
2023-05-16T12:37:21.413Z,1.07
2023-05-16T12:39:48.197Z,0.90
2023-05-16T12:42:14.906Z,0.70
2023-05-16T12:44:45.515Z,0.67
2023-05-16T12:47:13.680Z,0.90
2023-05-16T12:49:47.807Z,0.90
2023-05-16T12:52:21.389Z,0.60
2023-05-16T12:54:48.477Z,1.00
2023-05-16T12:57:15.251Z,0.60
2023-05-16T12:59:41.876Z,0.80
2023-05-16T13:02:08.798Z,0.93
2023-05-16T13:04:36.966Z,0.80
2023-05-16T13:07:04.685Z,0.60
2023-05-16T13:09:33.031Z,0.60
2023-05-16T13:12:00.282Z,0.87
2023-05-16T13:14:27.133Z,1.17
2023-05-16T13:16:53.780Z,0.80
2023-05-16T13:19:22.325Z,1.77
2023-05-16T13:21:48.973Z,0.77
2023-05-16T13:24:15.720Z,1.00
2023-05-16T13:26:42.329Z,0.90
2023-05-16T13:29:11.244Z,1.00
2023-05-16T13:31:37.944Z,1.30
2023-05-16T13:34:04.632Z,0.90
2023-05-16T13:36:41.592Z,0.70
2023-05-16T13:39:18.445Z,0.97
2023-05-16T13:41:46.783Z,0.87
2023-05-16T13:44:14.629Z,0.97
2023-05-16T13:46:41.391Z,1.37
2023-05-16T13:49:08.445Z,0.90
2023-05-16T13:51:35.036Z,1.07
2023-05-16T13:54:01.676Z,0.80
2023-05-16T13:56:28.317Z,0.87
2023-05-16T13:59:03.749Z,0.90
2023-05-16T14:01:31.281Z,0.87
2023-05-16T14:03:58.468Z,0.70
2023-05-16T14:06:25.255Z,1.00
2023-05-16T14:08:51.914Z,0.93
2023-05-16T14:11:19.906Z,1.17
2023-05-16T14:13:46.629Z,1.10
2023-05-16T14:16:13.352Z,0.90
2023-05-16T14:18:40.071Z,0.90
2023-05-16T14:21:06.836Z,1.97
2023-05-16T14:23:33.613Z,1.07
2023-05-16T14:26:00.867Z,1.17
2023-05-16T14:28:27.564Z,0.90
2023-05-16T14:30:54.436Z,1.10
2023-05-16T14:33:21.245Z,1.50
2023-05-16T14:35:49.976Z,1.57
2023-05-16T14:38:16.904Z,1.10
2023-05-16T14:40:43.594Z,1.60
2023-05-16T14:43:10.532Z,1.20
2023-05-16T14:45:38.191Z,1.00
2023-05-16T14:48:08.453Z,1.30
2023-05-16T14:50:35.337Z,1.20
2023-05-16T14:53:02.019Z,1.00
2023-05-16T14:55:29.062Z,1.50
2023-05-16T14:57:59.552Z,1.40
2023-05-16T15:00:27.232Z,1.17
2023-05-16T15:02:54.331Z,1.23
2023-05-16T15:05:21.008Z,1.93
2023-05-16T15:07:47.709Z,1.50
2023-05-16T15:10:14.361Z,1.40
2023-05-16T15:12:41.077Z,1.10
2023-05-16T15:15:12.551Z,1.10
2023-05-16T15:17:41.886Z,1.20
2023-05-16T15:20:10.791Z,1.13
2023-05-16T15:22:39.958Z,0.83
2023-05-16T15:25:07.603Z,0.80
2023-05-16T15:27:34.491Z,1.50
2023-05-16T15:30:01.386Z,1.07
2023-05-16T15:32:28.097Z,0.80
2023-05-16T15:34:54.807Z,1.00
2023-05-16T15:37:21.845Z,1.13
2023-05-16T15:39:48.483Z,1.20
2023-05-16T15:42:15.202Z,0.90
2023-05-16T15:44:41.910Z,0.90
2023-05-16T15:47:10.148Z,1.30
2023-05-16T15:49:36.856Z,1.30
2023-05-16T15:52:04.467Z,1.30
2023-05-16T15:54:31.415Z,1.10
2023-05-16T15:56:58.115Z,1.23
2023-05-16T15:59:24.863Z,1.23
2023-05-16T16:01:51.513Z,1.57
2023-05-16T16:04:22.565Z,1.80
2023-05-16T16:06:50.303Z,1.20
2023-05-16T16:09:17.782Z,1.73
2023-05-16T16:11:44.612Z,1.67
2023-05-16T16:14:11.332Z,1.40
2023-05-16T16:16:40.201Z,2.10
2023-05-16T16:19:07.665Z,1.70
2023-05-16T16:21:34.777Z,2.70
2023-05-16T16:24:01.858Z,1.63
2023-05-16T16:26:28.561Z,1.90
2023-05-16T16:28:55.264Z,2.00
2023-05-16T16:31:21.889Z,2.10
2023-05-16T16:33:49.182Z,2.00
2023-05-16T16:36:16.843Z,2.30
2023-05-16T16:38:43.669Z,2.03
2023-05-16T16:41:10.496Z,2.30
2023-05-16T16:43:39.732Z,2.27
2023-05-16T16:46:07.487Z,2.70
2023-05-16T16:48:34.832Z,2.17
2023-05-16T16:51:01.999Z,1.80
2023-05-16T16:53:29.011Z,1.83
2023-05-16T16:55:55.667Z,1.97
2023-05-16T16:58:25.429Z,2.00
2023-05-16T17:00:53.045Z,4.00
2023-05-16T17:03:20.054Z,2.33
2023-05-16T17:05:46.746Z,2.00
2023-05-16T17:08:13.460Z,2.37
2023-05-16T17:10:40.153Z,2.10
2023-05-16T17:13:10.256Z,2.23
2023-05-16T17:15:37.931Z,2.43
2023-05-16T17:18:08.257Z,1.87
2023-05-16T17:20:35.899Z,2.33
2023-05-16T17:23:04.266Z,2.10
2023-05-16T17:25:31.324Z,1.90
2023-05-16T17:27:58.262Z,2.30
2023-05-16T17:30:25.073Z,2.40
2023-05-16T17:32:51.800Z,2.03
2023-05-16T17:35:20.109Z,2.27
2023-05-16T17:37:47.613Z,2.03
2023-05-16T17:40:17.097Z,1.60
2023-05-16T17:42:45.083Z,1.60
2023-05-16T17:45:13.808Z,2.07
2023-05-16T17:47:41.178Z,1.90
2023-05-16T17:50:10.412Z,1.73
2023-05-16T17:52:39.850Z,2.00
2023-05-16T17:55:10.002Z,1.80
2023-05-16T17:57:36.793Z,2.23
2023-05-16T18:00:05.890Z,2.00
2023-05-16T18:02:32.932Z,2.43
2023-05-16T18:04:59.708Z,1.60
2023-05-16T18:07:27.109Z,2.07
2023-05-16T18:09:54.212Z,1.73
2023-05-16T18:12:21.262Z,1.83
2023-05-16T18:14:47.926Z,2.03
2023-05-16T18:17:14.746Z,1.77
2023-05-16T18:19:44.207Z,1.50
2023-05-16T18:22:12.370Z,2.10
2023-05-16T18:24:39.753Z,1.73
2023-05-16T18:27:06.732Z,1.73
2023-05-16T18:29:34.176Z,2.03
2023-05-16T18:32:01.457Z,1.80
2023-05-16T18:34:28.367Z,2.00
2023-05-16T18:36:55.004Z,2.03
2023-05-16T18:39:21.877Z,2.03
2023-05-16T18:41:48.690Z,1.57
2023-05-16T18:44:18.384Z,1.67
2023-05-16T18:46:46.232Z,1.70
2023-05-16T18:49:14.063Z,1.60
2023-05-16T18:51:40.953Z,1.63
2023-05-16T18:54:08.182Z,1.63
2023-05-16T18:56:34.996Z,1.43
2023-05-16T18:59:01.747Z,1.47
2023-05-16T19:01:29.030Z,1.60
2023-05-16T19:03:56.106Z,1.70
2023-05-16T19:06:22.986Z,1.90
2023-05-16T19:08:49.694Z,1.67
2023-05-16T19:11:17.784Z,1.60
2023-05-16T19:13:45.625Z,1.30
2023-05-16T19:16:12.787Z,1.50
2023-05-16T19:18:39.652Z,1.40
2023-05-16T19:21:07.801Z,1.20
2023-05-16T19:23:34.493Z,1.47
2023-05-16T19:26:01.186Z,1.30
2023-05-16T19:28:27.953Z,1.80
2023-05-16T19:30:54.783Z,1.40
2023-05-16T19:33:21.737Z,1.60
2023-05-16T19:35:51.292Z,1.70
2023-05-16T19:38:19.717Z,1.70
2023-05-16T19:40:46.874Z,1.50
2023-05-16T19:43:13.592Z,1.50
2023-05-16T19:45:40.328Z,1.60
2023-05-16T19:48:07.479Z,1.30
2023-05-16T19:50:34.520Z,1.27
2023-05-16T19:53:01.342Z,1.00
2023-05-16T19:55:30.390Z,1.57
2023-05-16T19:57:57.704Z,1.30
2023-05-16T20:00:24.629Z,1.23
2023-05-16T20:02:51.501Z,1.60
2023-05-16T20:05:23.261Z,1.20
2023-05-16T20:07:50.787Z,1.10
2023-05-16T20:10:19.214Z,1.27
2023-05-16T20:12:47.288Z,1.40
2023-05-16T20:15:13.964Z,1.70
2023-05-16T20:17:41.178Z,1.13
2023-05-16T20:20:09.627Z,1.47
2023-05-16T20:22:38.819Z,1.17
2023-05-16T20:25:10.401Z,1.33
2023-05-16T20:27:37.593Z,1.10
2023-05-16T20:30:06.425Z,1.40
2023-05-16T20:32:33.633Z,1.37
2023-05-16T20:35:01.128Z,1.70
2023-05-16T20:37:27.803Z,1.70
2023-05-16T20:39:54.596Z,1.27
2023-05-16T20:42:21.964Z,1.53
2023-05-16T20:44:48.613Z,1.60
2023-05-16T20:47:16.725Z,1.20
2023-05-16T20:49:43.436Z,1.70
2023-05-16T20:52:10.120Z,1.20
2023-05-16T20:54:36.780Z,1.27
2023-05-16T20:57:03.634Z,1.60
2023-05-16T20:59:30.276Z,1.70
2023-05-16T21:01:57.426Z,1.20
2023-05-16T21:04:24.334Z,1.27
2023-05-16T21:06:51.276Z,2.60
2023-05-16T21:09:17.888Z,1.53
2023-05-16T21:11:44.550Z,1.23
2023-05-16T21:14:11.420Z,2.03
2023-05-16T21:16:38.027Z,1.27
2023-05-16T21:19:04.934Z,1.00
2023-05-16T21:21:32.097Z,1.57
2023-05-16T21:23:58.787Z,2.43
2023-05-16T21:26:26.069Z,1.03
2023-05-16T21:28:55.671Z,0.90
2023-05-16T21:31:22.876Z,1.10
2023-05-16T21:33:51.899Z,1.07
2023-05-16T21:36:20.146Z,1.30
2023-05-16T21:38:47.197Z,1.30
2023-05-16T21:41:14.394Z,2.03
2023-05-16T21:43:41.179Z,1.10
2023-05-16T21:46:07.802Z,1.50
2023-05-16T21:48:34.606Z,1.33
2023-05-16T21:51:01.684Z,1.10
2023-05-16T21:53:28.382Z,1.83
2023-05-16T21:55:55.106Z,1.67
2023-05-16T21:58:21.954Z,1.30
2023-05-16T22:00:49.442Z,1.40
2023-05-16T22:03:18.895Z,1.63
2023-05-16T22:05:48.811Z,1.90
2023-05-16T22:08:15.739Z,1.97
2023-05-16T22:10:42.727Z,1.90
2023-05-16T22:13:09.630Z,2.10
2023-05-16T22:15:36.367Z,2.40
2023-05-16T22:18:03.110Z,2.00
2023-05-16T22:20:29.915Z,2.20
2023-05-16T22:22:56.743Z,2.13
2023-05-16T22:25:23.855Z,2.17
2023-05-16T22:27:50.612Z,2.40
2023-05-16T22:30:17.309Z,2.23
2023-05-16T22:32:48.001Z,2.47
2023-05-16T22:35:14.781Z,3.10
2023-05-16T22:37:41.500Z,2.20
2023-05-16T22:40:08.891Z,2.10
2023-05-16T22:42:35.636Z,2.40
2023-05-16T22:45:03.244Z,1.97
2023-05-16T22:47:29.948Z,2.10
2023-05-16T22:49:56.697Z,2.30
2023-05-16T22:52:23.372Z,2.30
2023-05-16T22:54:50.097Z,2.27
2023-05-16T22:57:16.807Z,2.50
2023-05-16T22:59:43.447Z,2.20
2023-05-16T23:02:10.031Z,2.20
2023-05-16T23:04:36.773Z,2.50
2023-05-16T23:07:03.500Z,2.10
2023-05-16T23:09:30.338Z,2.50
2023-05-16T23:11:56.969Z,2.37
2023-05-16T23:14:23.573Z,2.67
2023-05-16T23:16:50.291Z,2.80
2023-05-16T23:19:17.066Z,2.50
2023-05-16T23:21:44.407Z,2.83
2023-05-16T23:24:11.007Z,2.20
2023-05-16T23:26:37.676Z,2.37
2023-05-16T23:29:04.434Z,2.17
2023-05-16T23:31:31.102Z,2.47
2023-05-16T23:33:57.803Z,2.40
2023-05-16T23:36:24.706Z,2.50
2023-05-16T23:38:51.303Z,2.70
2023-05-16T23:41:18.006Z,3.03
2023-05-16T23:43:45.748Z,2.70
2023-05-16T23:46:12.331Z,3.43
2023-05-16T23:48:39.890Z,2.90
2023-05-16T23:51:07.526Z,2.20
2023-05-16T23:53:35.211Z,2.47
2023-05-16T23:56:02.108Z,2.60
2023-05-16T23:58:28.789Z,2.80
